Time;durP1;ratioP1;P1;durP2;ratioP2;P2;SDS_P1;SDS_P2;PMS_P1;PMS_P2;Temp;Humidity;BMP_temperature;BMP_pressure;BME280_temperature;BME280_humidity;BME280_pressure;Samples;Min_cycle;Max_cycle;Signal;HPM_P1;HPM_P2
2021/01/16 00:01:03;;;;;;;21.97;12.40;;;;;;;;;;5113413;28;20035;-66
2021/01/16 00:03:29;;;;;;;20.53;12.57;;;;;;;;;;5113218;28;20024;-66
2021/01/16 00:05:56;;;;;;;23.90;12.97;;;;;;;;;;5113420;28;20024;-66
2021/01/16 00:08:23;;;;;;;22.77;13.43;;;;;;;;;;5113442;28;20070;-66
2021/01/16 00:10:50;;;;;;;23.27;13.63;;;;;;;;;;5113297;28;20024;-67
2021/01/16 00:13:21;;;;;;;25.50;14.20;;;;;;;;;;5112967;28;20019;-66
2021/01/16 00:15:47;;;;;;;21.87;13.30;;;;;;;;;;5113086;28;20035;-66
2021/01/16 00:18:14;;;;;;;21.97;13.23;;;;;;;;;;5112877;28;20046;-66
2021/01/16 00:20:42;;;;;;;22.23;14.00;;;;;;;;;;5113176;28;20012;-66
2021/01/16 00:23:08;;;;;;;21.97;14.43;;;;;;;;;;5113194;28;20066;-69
2021/01/16 00:25:35;;;;;;;26.00;14.53;;;;;;;;;;5112929;28;20460;-66
2021/01/16 00:28:01;;;;;;;24.00;14.13;;;;;;;;;;5112982;28;20113;-67
2021/01/16 00:30:30;;;;;;;22.77;14.50;;;;;;;;;;5113046;28;20379;-66
2021/01/16 00:33:00;;;;;;;21.00;12.50;;;;;;;;;;5112800;28;20050;-66
2021/01/16 00:35:27;;;;;;;25.13;14.23;;;;;;;;;;5113623;28;20030;-66
2021/01/16 00:37:54;;;;;;;22.90;13.17;;;;;;;;;;5116385;28;20031;-66
2021/01/16 00:40:21;;;;;;;25.40;13.87;;;;;;;;;;5116591;28;20032;-66
2021/01/16 00:42:49;;;;;;;25.03;14.20;;;;;;;;;;5116585;28;20031;-67
2021/01/16 00:45:15;;;;;;;25.90;15.03;;;;;;;;;;5116488;28;20035;-66
2021/01/16 00:47:42;;;;;;;22.10;13.27;;;;;;;;;;5116486;28;20027;-67
2021/01/16 00:50:10;;;;;;;31.90;14.83;;;;;;;;;;5116180;28;20107;-66
2021/01/16 00:52:36;;;;;;;23.70;14.43;;;;;;;;;;5116204;28;20468;-67
2021/01/16 00:55:03;;;;;;;22.23;13.90;;;;;;;;;;5116549;28;20465;-66
2021/01/16 00:57:29;;;;;;;26.60;14.47;;;;;;;;;;5116397;28;20024;-66
2021/01/16 00:59:55;;;;;;;27.57;14.93;;;;;;;;;;5116173;28;20032;-66
2021/01/16 01:02:22;;;;;;;29.13;14.83;;;;;;;;;;5116407;28;20443;-66
2021/01/16 01:04:48;;;;;;;24.07;13.47;;;;;;;;;;5116020;28;20422;-66
2021/01/16 01:07:15;;;;;;;26.00;14.40;;;;;;;;;;5115900;28;20064;-67
2021/01/16 01:09:41;;;;;;;26.67;13.73;;;;;;;;;;5116129;28;20026;-66
2021/01/16 01:12:07;;;;;;;26.87;14.60;;;;;;;;;;5115643;28;20027;-66
2021/01/16 01:14:33;;;;;;;25.23;13.67;;;;;;;;;;5115902;28;20020;-67
2021/01/16 01:16:59;;;;;;;23.40;13.47;;;;;;;;;;5115804;28;20102;-66
2021/01/16 01:19:25;;;;;;;27.47;14.07;;;;;;;;;;5115927;28;20035;-67
2021/01/16 01:21:51;;;;;;;24.40;13.47;;;;;;;;;;5115726;28;20019;-66
2021/01/16 01:24:17;;;;;;;24.03;13.00;;;;;;;;;;5115971;28;20034;-66
2021/01/16 01:26:44;;;;;;;22.57;13.73;;;;;;;;;;5115830;28;20019;-67
2021/01/16 01:29:10;;;;;;;23.83;12.97;;;;;;;;;;5115697;28;20381;-68
2021/01/16 01:31:38;;;;;;;26.07;13.87;;;;;;;;;;5116041;28;20380;-67
2021/01/16 01:34:05;;;;;;;24.73;13.23;;;;;;;;;;5115632;28;20079;-66
2021/01/16 01:36:31;;;;;;;22.87;13.70;;;;;;;;;;5115401;28;20094;-66
2021/01/16 01:38:57;;;;;;;29.17;13.00;;;;;;;;;;5115454;28;20040;-66
2021/01/16 01:41:23;;;;;;;22.07;13.30;;;;;;;;;;5115578;28;20034;-66
2021/01/16 01:43:49;;;;;;;24.70;12.67;;;;;;;;;;5115363;28;20388;-67
2021/01/16 01:46:16;;;;;;;25.30;13.20;;;;;;;;;;5115293;28;20115;-67
2021/01/16 01:48:42;;;;;;;25.53;12.50;;;;;;;;;;5115022;28;20019;-66
2021/01/16 01:51:09;;;;;;;23.00;13.20;;;;;;;;;;5115200;28;20488;-66
2021/01/16 01:53:36;;;;;;;23.50;12.37;;;;;;;;;;5115270;28;20459;-66
2021/01/16 01:56:03;;;;;;;23.20;11.90;;;;;;;;;;5115363;28;20045;-67
2021/01/16 01:58:30;;;;;;;21.50;11.90;;;;;;;;;;5113072;28;20488;-67
2021/01/16 02:00:56;;;;;;;23.33;12.70;;;;;;;;;;5112185;28;20052;-66
2021/01/16 02:03:23;;;;;;;23.33;12.33;;;;;;;;;;5112343;28;20027;-67
2021/01/16 02:05:53;;;;;;;23.20;12.30;;;;;;;;;;5114360;28;20028;-69
2021/01/16 02:08:19;;;;;;;24.27;13.10;;;;;;;;;;5114927;28;20020;-66
2021/01/16 02:10:45;;;;;;;24.27;13.57;;;;;;;;;;5114887;28;20027;-66
2021/01/16 02:13:11;;;;;;;25.37;12.63;;;;;;;;;;5114467;28;20392;-67
2021/01/16 02:15:37;;;;;;;22.13;13.40;;;;;;;;;;5114845;28;20031;-68
2021/01/16 02:18:10;;;;;;;21.50;12.77;;;;;;;;;;5114478;28;20039;-67
2021/01/16 02:20:37;;;;;;;26.10;13.97;;;;;;;;;;5114151;28;20027;-66
2021/01/16 02:23:12;;;;;;;24.37;13.00;;;;;;;;;;5114592;28;20467;-67
2021/01/16 02:25:41;;;;;;;21.73;12.97;;;;;;;;;;5114658;28;20213;-66
2021/01/16 02:28:13;;;;;;;24.70;13.67;;;;;;;;;;5114005;28;20051;-67
2021/01/16 02:30:41;;;;;;;26.40;14.13;;;;;;;;;;5114610;28;20023;-68
2021/01/16 02:33:11;;;;;;;24.53;13.63;;;;;;;;;;5114367;28;20031;-71
2021/01/16 02:35:38;;;;;;;25.27;14.10;;;;;;;;;;5113893;28;20484;-66
2021/01/16 02:38:16;;;;;;;25.00;13.53;;;;;;;;;;5114026;28;20387;-67
2021/01/16 02:40:54;;;;;;;25.27;14.10;;;;;;;;;;5114034;28;20483;-66
2021/01/16 02:43:31;;;;;;;25.70;13.83;;;;;;;;;;5113919;28;20031;-66
2021/01/16 02:46:03;;;;;;;32.23;14.70;;;;;;;;;;5113868;28;20551;-66
2021/01/16 02:48:40;;;;;;;24.77;13.57;;;;;;;;;;5114338;28;20494;-66
2021/01/16 02:51:06;;;;;;;22.37;13.13;;;;;;;;;;5114055;28;20102;-66
2021/01/16 02:53:35;;;;;;;22.97;12.97;;;;;;;;;;5114231;28;20069;-66
2021/01/16 02:56:12;;;;;;;21.37;12.50;;;;;;;;;;5114093;28;20052;-66
2021/01/16 02:58:38;;;;;;;24.57;12.80;;;;;;;;;;5113089;28;20544;-66
2021/01/16 03:01:04;;;;;;;21.50;13.20;;;;;;;;;;5113730;28;20039;-66
2021/01/16 03:03:32;;;;;;;27.87;15.17;;;;;;;;;;5114018;28;20084;-67
2021/01/16 03:05:58;;;;;;;27.17;14.47;;;;;;;;;;5114205;28;20023;-67
2021/01/16 03:08:24;;;;;;;29.23;15.10;;;;;;;;;;5113664;28;20491;-66
2021/01/16 03:10:50;;;;;;;23.87;13.77;;;;;;;;;;5113833;28;20103;-66
2021/01/16 03:13:16;;;;;;;28.70;15.23;;;;;;;;;;5113628;28;20020;-67
2021/01/16 03:15:43;;;;;;;26.10;13.73;;;;;;;;;;5110341;28;20035;-67
2021/01/16 03:18:12;;;;;;;28.53;15.03;;;;;;;;;;5110769;28;20036;-67
2021/01/16 03:20:38;;;;;;;25.13;14.00;;;;;;;;;;5114096;28;20058;-67
2021/01/16 03:23:04;;;;;;;24.37;13.57;;;;;;;;;;5113722;28;20023;-66
2021/01/16 03:25:31;;;;;;;31.60;15.13;;;;;;;;;;5113394;28;20112;-67
2021/01/16 03:27:58;;;;;;;29.10;14.73;;;;;;;;;;5113189;28;20048;-67
2021/01/16 03:30:24;;;;;;;26.97;15.03;;;;;;;;;;5113552;28;20026;-67
2021/01/16 03:32:52;;;;;;;32.07;15.37;;;3.80;49.70;;;;;;5113535;28;20024;-67
2021/01/16 03:35:21;;;;;;;36.73;16.43;;;-0.20;63.90;;;;;;5113585;28;20023;-69
2021/01/16 03:37:47;;;;;;;31.67;15.33;;;-0.30;63.90;;;;;;5113713;28;20028;-66
2021/01/16 03:40:14;;;;;;;28.63;14.93;;;-0.30;64.20;;;;;;5113447;28;20027;-66
2021/01/16 03:42:40;;;;;;;26.87;14.67;;;-0.30;64.10;;;;;;5113561;28;20034;-66
2021/01/16 03:45:12;;;;;;;29.77;14.80;;;-0.30;64.40;;;;;;5113450;28;20019;-66
2021/01/16 03:47:38;;;;;;;24.47;13.67;;;-0.40;64.20;;;;;;5113410;28;20043;-67
2021/01/16 03:50:05;;;;;;;19.97;10.77;;;-0.40;64.30;;;;;;5113417;28;20098;-67
2021/01/16 03:52:34;;;;;;;16.93;9.33;;;-0.40;63.80;;;;;;5113590;28;20532;-66
2021/01/16 03:55:00;;;;;;;15.67;8.60;;;-0.40;63.40;;;;;;5113224;28;20031;-66
2021/01/16 03:57:26;;;;;;;16.03;7.43;;;-0.40;63.80;;;;;;5113409;28;20049;-66
2021/01/16 03:59:52;;;;;;;12.30;6.63;;;-0.40;63.30;;;;;;5113098;28;20031;-66
2021/01/16 04:02:18;;;;;;;9.97;5.67;;;-0.40;63.10;;;;;;5113120;28;20024;-67
2021/01/16 04:04:48;;;;;;;8.87;5.30;;;-0.30;62.20;;;;;;5113347;28;20023;-67
2021/01/16 04:07:14;;;;;;;9.53;5.20;;;-0.30;61.80;;;;;;5113501;28;20020;-67
2021/01/16 04:09:41;;;;;;;8.57;5.00;;;-0.30;61.70;;;;;;5113571;28;20114;-67
2021/01/16 04:12:07;;;;;;;11.13;4.40;;;-0.30;61.80;;;;;;5116715;28;20030;-66
2021/01/16 04:14:33;;;;;;;7.37;4.33;;;-0.20;61.70;;;;;;5117354;28;20383;-67
2021/01/16 04:16:59;;;;;;;10.10;5.80;;;-0.20;61.70;;;;;;5117223;28;20023;-67
2021/01/16 04:19:25;;;;;;;11.43;6.20;;;-0.20;61.70;;;;;;5116985;28;20027;-66
2021/01/16 04:21:51;;;;;;;13.43;7.53;;;-0.20;61.80;;;;;;5117117;28;20019;-67
2021/01/16 04:24:17;;;;;;;15.07;7.60;;;-0.20;61.50;;;;;;5116890;28;20020;-66
2021/01/16 04:26:43;;;;;;;15.50;9.20;;;-0.30;61.70;;;;;;5116814;28;20019;-67
2021/01/16 04:29:08;;;;;;;13.37;7.67;;;-0.30;62.50;;;;;;5116707;28;20047;-67
2021/01/16 04:31:34;;;;;;;10.93;6.63;;;-0.40;62.30;;;;;;5116911;28;20072;-67
2021/01/16 04:34:00;;;;;;;14.10;6.87;;;-0.40;62.10;;;;;;5116514;28;20066;-67
2021/01/16 04:36:26;;;;;;;10.53;5.93;;;;;;;;;;5116729;28;20045;-66
2021/01/16 04:38:52;;;;;;;11.50;7.00;;;;;;;;;;5116643;28;20042;-69
2021/01/16 04:41:20;;;;;;;11.80;6.97;;;;;;;;;;5116677;28;20028;-67
2021/01/16 04:43:48;;;;;;;13.40;7.20;;;;;;;;;;5116440;28;20114;-66
2021/01/16 04:46:15;;;;;;;14.97;7.87;;;;;;;;;;5116397;28;20051;-67
2021/01/16 04:48:44;;;;;;;19.50;9.27;;;;;;;;;;5116334;28;20055;-67
2021/01/16 04:51:11;;;;;;;17.80;8.20;;;;;;;;;;5116429;28;20020;-67
2021/01/16 04:53:39;;;;;;;17.17;10.20;;;;;;;;;;5116339;28;20107;-67
2021/01/16 04:56:06;;;;;;;20.83;11.00;;;;;;;;;;5116454;28;20456;-66
2021/01/16 04:58:33;;;;;;;18.87;10.60;;;;;;;;;;5116173;28;20384;-67
2021/01/16 05:01:02;;;;;;;18.40;10.37;;;;;;;;;;5116238;28;20023;-67
2021/01/16 05:03:28;;;;;;;16.73;9.73;;;;;;;;;;5116182;28;20465;-66
2021/01/16 05:05:57;;;;;;;17.90;10.00;;;;;;;;;;5116194;28;20153;-67
2021/01/16 05:08:24;;;;;;;14.60;8.50;;;;;;;;;;5116355;28;20043;-68
2021/01/16 05:10:54;;;;;;;15.93;8.93;;;;;;;;;;5115925;28;20042;-66
2021/01/16 05:13:24;;;;;;;17.80;9.53;;;;;;;;;;5116173;28;20035;-67
2021/01/16 05:15:52;;;;;;;16.23;9.40;;;;;;;;;;5116158;28;20027;-67
2021/01/16 05:18:22;;;;;;;13.87;8.27;;;;;;;;;;5115823;28;20358;-66
2021/01/16 05:20:48;;;;;;;12.03;7.83;;;;;;;;;;5116003;28;20312;-67
2021/01/16 05:23:17;;;;;;;14.27;7.43;;;;;;;;;;5115681;28;20366;-67
2021/01/16 05:25:43;;;;;;;9.80;5.70;;;;;;;;;;5115768;28;20051;-69
2021/01/16 05:28:09;;;;;;;9.90;4.87;;;;;;;;;;5115479;28;20792;-67
2021/01/16 05:30:45;;;;;;;9.30;4.57;;;;;;;;;;5115702;28;20261;-66
2021/01/16 05:33:12;;;;;;;9.40;4.60;;;;;;;;;;5115810;28;20047;-67
2021/01/16 05:35:38;;;;;;;6.97;4.20;;;;;;;;;;5115570;28;20102;-67
2021/01/16 05:38:04;;;;;;;9.23;5.30;;;;;;;;;;5115314;28;20039;-66
2021/01/16 05:40:30;;;;;;;8.77;4.80;;;;;;;;;;5115544;28;20412;-67
2021/01/16 05:42:59;;;;;;;11.67;6.43;;;;;;;;;;5115471;28;20024;-67
2021/01/16 05:45:26;;;;;;;12.00;6.07;;;;;;;;;;5115621;28;20023;-67
2021/01/16 05:47:52;;;;;;;10.60;6.03;;;;;;;;;;5114935;28;20026;-66
2021/01/16 05:50:22;;;;;;;11.03;6.00;;;-0.40;62.70;;;;;;5115216;28;20015;-67
2021/01/16 05:52:49;;;;;;;17.30;8.90;;;-0.80;62.90;;;;;;5115115;28;20024;-66
2021/01/16 05:55:17;;;;;;;15.90;8.87;;;-0.70;61.70;;;;;;5115199;28;20034;-67
2021/01/16 05:57:47;;;;;;;19.90;9.20;;;-0.70;61.60;;;;;;5115053;28;20034;-66
2021/01/16 06:00:23;;;;;;;13.00;8.03;;;-0.80;61.80;;;;;;5114996;28;20024;-66
2021/01/16 06:02:51;;;;;;;15.33;8.53;;;-0.80;62.10;;;;;;5114985;28;20080;-67
2021/01/16 06:05:25;;;;;;;14.93;8.33;;;-0.90;62.60;;;;;;5115054;28;20299;-67
2021/01/16 06:07:55;;;;;;;19.30;8.57;;;-1.00;63.00;;;;;;5114956;28;20027;-67
2021/01/16 06:10:21;;;;;;;14.90;8.50;;;-1.00;63.00;;;;;;5114679;28;20754;-67
2021/01/16 06:12:51;;;;;;;13.30;8.17;;;-1.10;63.20;;;;;;5114805;28;20326;-66
2021/01/16 06:15:19;;;;;;;15.87;7.90;;;-1.10;63.00;;;;;;5115059;28;20642;-66
2021/01/16 06:17:50;;;;;;;15.57;8.10;;;-1.20;63.10;;;;;;5114567;28;20080;-67
2021/01/16 06:20:20;;;;;;;14.03;7.67;;;-1.20;63.80;;;;;;5114588;28;20053;-66
2021/01/16 06:22:50;;;;;;;13.97;8.20;;;-1.20;63.80;;;;;;5114878;28;20258;-66
2021/01/16 06:25:21;;;;;;;11.33;7.70;;;-1.20;64.00;;;;;;5114644;28;20472;-67
2021/01/16 06:27:49;;;;;;;15.23;7.87;;;-1.20;64.30;;;;;;5114439;28;20139;-66
2021/01/16 06:30:18;;;;;;;14.00;8.13;;;-1.20;64.00;;;;;;5114559;28;20266;-66
2021/01/16 06:32:53;;;;;;;16.43;9.57;;;-1.20;64.40;;;;;;5113910;28;20249;-67
2021/01/16 06:35:20;;;;;;;15.33;9.17;;;-1.20;64.60;;;;;;5114317;28;20019;-67
2021/01/16 06:37:51;;;;;;;17.40;10.27;;;-1.20;64.50;;;;;;5114292;28;20019;-69
2021/01/16 06:40:36;;;;;;;16.40;9.13;;;-1.20;64.70;;;;;;5114394;28;20253;-67
2021/01/16 06:43:15;;;;;;;21.13;10.83;;;-1.20;64.60;;;;;;5114165;28;20388;-66
2021/01/16 06:45:41;;;;;;;20.13;11.10;;;-1.20;64.40;;;;;;5114220;28;20267;-67
2021/01/16 06:48:09;;;;;;;19.53;11.13;;;-1.20;64.20;;;;;;5114188;28;20249;-67
2021/01/16 06:50:36;;;;;;;19.37;10.47;;;-1.30;64.30;;;;;;5114161;28;20485;-67
2021/01/16 06:53:03;;;;;;;17.77;10.40;;;-1.20;64.80;;;;;;5113909;28;20666;-66
2021/01/16 06:55:31;;;;;;;17.57;9.80;;;-1.20;65.00;;;;;;5115541;28;20062;-67
2021/01/16 06:58:16;;;;;;;16.03;9.80;;;-1.20;64.70;;;;;;5113739;28;20075;-67
2021/01/16 07:00:52;;;;;;;17.40;8.77;;;-1.20;64.30;;;;;;5113709;28;20750;-66
2021/01/16 07:03:20;;;;;;;16.47;8.97;;;-1.10;64.40;;;;;;5113496;27;20028;-67
2021/01/16 07:05:47;;;;;;;17.53;9.57;;;-1.10;64.60;;;;;;5114080;28;20038;-66
2021/01/16 07:08:16;;;;;;;18.13;9.83;;;-1.10;64.50;;;;;;5113746;28;20039;-66
2021/01/16 07:10:42;;;;;;;15.20;10.20;;;-1.10;64.30;;;;;;5113991;28;20269;-67
2021/01/16 07:13:12;;;;;;;19.37;11.00;;;-1.20;64.70;;;;;;5113544;28;20331;-66
2021/01/16 07:15:37;;;;;;;20.27;10.67;;;-1.20;64.60;;;;;;5113948;28;20015;-67
2021/01/16 07:18:03;;;;;;;20.20;11.70;;;-1.20;65.50;;;;;;5113573;28;20027;-67
2021/01/16 07:20:30;;;;;;;20.50;11.57;;;-1.20;65.30;;;;;;5113487;28;20027;-67
2021/01/16 07:22:56;;;;;;;22.47;10.93;;;-1.30;65.60;;;;;;5112995;28;20028;-67
2021/01/16 07:25:21;;;;;;;22.30;11.37;;;-1.30;65.40;;;;;;5113089;28;20276;-66
2021/01/16 07:27:47;;;;;;;20.53;11.60;;;-1.20;66.10;;;;;;5111807;28;20138;-67
2021/01/16 07:30:15;;;;;;;23.33;11.27;;;-1.20;65.80;;;;;;5111475;28;20072;-66
2021/01/16 07:32:44;;;;;;;18.10;10.47;;;-1.20;66.30;;;;;;5111713;28;20028;-67
2021/01/16 07:35:24;;;;;;;22.50;10.93;;;-1.20;66.10;;;;;;5111712;28;20063;-67
2021/01/16 07:37:52;;;;;;;19.07;10.07;;;-1.20;65.50;;;;;;5111423;28;20253;-67
2021/01/16 07:40:25;;;;;;;21.93;10.13;;;-1.10;65.30;;;;;;5112195;28;20265;-66
2021/01/16 07:42:58;;;;;;;27.17;11.30;;;-1.00;64.90;;;;;;5112751;28;20020;-67
2021/01/16 07:45:31;;;;;;;21.40;11.07;;;-0.90;64.60;;;;;;5114761;28;20670;-66
2021/01/16 07:48:02;;;;;;;22.63;11.88;;;-0.90;64.30;;;;;;5115090;28;20024;-64
2021/01/16 07:50:30;;;;;;;21.43;10.97;;;-0.80;64.40;;;;;;5113458;28;20027;-66
2021/01/16 07:53:04;;;;;;;25.17;12.17;;;-0.70;64.70;;;;;;5114353;28;20024;-66
2021/01/16 07:55:36;;;;;;;18.27;10.33;;;-0.60;64.20;;;;;;5116619;28;20076;-66
2021/01/16 07:58:30;;;;;;;18.20;9.47;;;-0.50;63.80;;;;;;5117397;28;20024;-66
2021/01/16 08:01:30;;;;;;;19.23;9.00;;;-0.40;63.70;;;;;;5117717;28;20380;-66
2021/01/16 08:04:16;;;;;;;16.03;8.63;;;-0.30;62.70;;;;;;5090619;28;20381;-65
2021/01/16 08:07:03;;;;;;;15.90;8.47;;;-0.10;62.20;;;;;;5116435;28;20027;-66
2021/01/16 08:09:38;;;;;;;17.53;9.07;;;0.00;62.10;;;;;;5114673;28;20337;-67
2021/01/16 08:12:11;;;;;;;22.40;11.63;;;0.10;61.80;;;;;;5114758;28;20111;-66
2021/01/16 08:14:38;;;;;;;;;;;0.20;61.20;;;;;;5116244;28;20011;-66
2021/01/16 08:17:06;;;;;;;22.93;12.70;;;0.30;61.60;;;;;;5116241;28;19903;-65
2021/01/16 08:19:46;;;;;;;28.60;13.23;;;0.40;61.30;;;;;;5116444;28;20059;-65
2021/01/16 08:22:21;;;;;;;33.53;14.73;;;0.50;62.70;;;;;;5115277;28;20024;-66
2021/01/16 08:25:04;;;;;;;32.73;16.13;;;0.50;61.50;;;;;;5116462;28;20099;-65
2021/01/16 08:27:31;;;;;;;37.03;16.13;;;0.60;61.50;;;;;;5116273;28;20126;-65
2021/01/16 08:29:57;;;;;;;28.30;15.13;;;0.70;61.30;;;;;;5116349;28;20132;-65
2021/01/16 08:32:23;;;;;;;33.00;15.27;;;0.70;63.50;;;;;;5116488;28;20019;-65
2021/01/16 08:34:50;;;;;;;32.63;14.43;;;0.80;63.50;;;;;;5116403;28;20024;-65
2021/01/16 08:37:39;;;;;;;37.90;16.07;;;0.80;64.10;;;;;;5115629;28;20437;-66
2021/01/16 08:40:09;;;;;;;31.87;18.63;;;0.90;62.50;;;;;;5115624;28;20134;-65
2021/01/16 08:42:48;;;;;;;37.60;20.23;;;1.00;63.80;;;;;;5112814;28;20036;-66
2021/01/16 08:45:16;;;;;;;32.63;18.50;;;1.00;63.20;;;;;;5111486;28;20027;-65
2021/01/16 08:48:02;;;;;;;32.87;17.63;;;1.10;62.70;;;;;;5112771;28;20110;-65
2021/01/16 08:50:33;;;;;;;36.37;18.97;;;1.20;62.80;;;;;;5114589;28;20436;-66
2021/01/16 08:52:59;;;;;;;28.77;18.03;;;1.30;61.80;;;;;;5116120;28;20369;-65
2021/01/16 08:55:27;;;;;;;28.43;16.53;;;1.40;61.80;;;;;;5116516;28;20024;-65
2021/01/16 08:58:07;;;;;;;27.73;16.47;;;1.50;62.30;;;;;;5115542;28;20070;-65
2021/01/16 09:00:34;;;;;;;25.63;13.80;;;1.60;61.50;;;;;;5116071;28;20107;-65
2021/01/16 09:03:20;;;;;;;31.43;14.43;;;1.60;61.20;;;;;;5116267;28;20024;-65
2021/01/16 09:05:59;;;;;;;19.13;11.73;;;1.70;61.00;;;;;;5116459;28;20442;-66
2021/01/16 09:08:26;;;;;;;25.10;11.13;;;1.80;61.10;;;;;;5116216;27;20027;-66
2021/01/16 09:10:54;;;;;;;17.33;8.40;;;1.90;60.70;;;;;;5116080;28;20024;-64
2021/01/16 09:13:28;;;;;;;13.47;7.47;;;2.00;60.10;;;;;;5116537;28;20020;-64
2021/01/16 09:15:55;;;;;;;11.33;6.77;;;2.10;59.10;;;;;;5115885;28;20085;-65
2021/01/16 09:18:20;;;;;;;9.27;5.60;;;2.20;58.10;;;;;;5115753;27;20032;-65
2021/01/16 09:20:52;;;;;;;11.63;5.90;;;2.30;56.80;;;;;;5114037;28;20484;-65
2021/01/16 09:23:21;;;;;;;10.50;6.37;;;2.40;55.80;;;;;;5113200;28;20070;-65
2021/01/16 09:25:48;;;;;;;15.87;6.40;;;2.50;55.10;;;;;;5111927;28;20031;-66
2021/01/16 09:28:14;;;;;;;17.47;6.17;;;2.60;55.00;;;;;;5110583;28;20051;-66
2021/01/16 09:30:39;;;;;;;9.60;5.67;;;2.70;54.40;;;;;;5113185;28;20080;-67
2021/01/16 09:33:22;;;;;;;12.73;5.50;;;2.80;53.60;;;;;;5114899;28;20026;-66
2021/01/16 09:35:48;;;;;;;10.70;6.15;;;2.90;52.80;;;;;;5115179;28;20035;-67
2021/01/16 09:38:23;;;;;;;11.60;6.50;;;3.00;52.40;;;;;;5114974;28;20027;-65
2021/01/16 09:40:50;;;;;;;11.63;6.50;;;;;;;;;;5114678;28;20023;-67
2021/01/16 09:43:20;;;;;;;12.10;6.13;;;;;;;;;;5114881;28;20070;-67
2021/01/16 09:45:49;;;;;;;11.93;5.90;;;;;;;;;;5115023;28;20023;-68
2021/01/16 09:48:42;;;;;;;10.20;5.70;;;;;;;;;;5115009;28;20077;-67
2021/01/16 09:51:13;;;;;;;15.05;6.57;;;;;;;;;;5114607;28;20476;-67
2021/01/16 09:53:39;;;;;;;13.93;7.03;;;;;;;;;;5114740;28;20034;-65
2021/01/16 09:56:06;;;;;;;12.00;6.90;;;;;;;;;;5115285;28;20027;-65
2021/01/16 09:58:38;;;;;;;13.37;6.90;;;;;;;;;;5114957;28;20031;-65
2021/01/16 10:01:14;;;;;;;21.20;8.17;;;;;;;;;;5114926;28;20329;-66
2021/01/16 10:03:41;;;;;;;15.07;9.53;;;;;;;;;;5114703;28;20047;-65
2021/01/16 10:06:07;;;;;;;16.47;8.77;;;;;;;;;;5115265;28;20023;-65
2021/01/16 10:08:33;;;;;;;17.20;9.80;;;;;;;;;;5113275;28;20035;-65
2021/01/16 10:11:00;;;;;;;14.53;9.03;;;;;;;;;;5115032;28;20023;-65
2021/01/16 10:13:34;;;;;;;13.00;7.90;;;;;;;;;;5114270;28;20020;-65
2021/01/16 10:16:10;;;;;;;17.07;7.20;;;;;;;;;;5114468;28;20024;-64
2021/01/16 10:18:37;;;;;;;11.20;6.43;;;;;;;;;;5114784;28;20175;-65
2021/01/16 10:21:06;;;;;;;12.63;7.43;;;;;;;;;;5115017;28;20051;-65
2021/01/16 10:23:34;;;;;;;16.00;8.17;;;;;;;;;;5114871;28;20100;-67
2021/01/16 10:26:12;;;;;;;13.43;7.43;;;;;;;;;;5115077;28;20020;-65
2021/01/16 10:28:57;;;;;;;12.13;7.00;;;;;;;;;;5114606;28;20078;-65
2021/01/16 10:31:24;;;;;;;10.50;6.67;;;;;;;;;;5113570;28;20023;-65
2021/01/16 10:33:50;;;;;;;15.90;7.07;;;;;;;;;;5114672;28;20529;-65
2021/01/16 10:36:17;;;;;;;23.63;7.90;;;;;;;;;;5114731;28;20476;-65
2021/01/16 10:38:55;;;;;;;12.70;7.30;;;;;;;;;;5114545;28;20047;-65
2021/01/16 10:41:35;;;;;;;12.67;7.77;;;;;;;;;;5114174;28;20030;-65
2021/01/16 10:44:03;;;;;;;14.80;8.33;;;;;;;;;;5114122;28;20068;-65
2021/01/16 10:46:36;;;;;;;16.37;8.83;;;;;;;;;;5114003;28;20408;-65
2021/01/16 10:49:17;;;;;;;16.57;8.67;;;;;;;;;;5114194;28;20399;-65
2021/01/16 10:51:55;;;;;;;17.10;9.90;;;;;;;;;;5114050;28;20028;-66
2021/01/16 10:54:21;;;;;;;15.43;8.93;;;;;;;;;;5113958;28;20024;-65
2021/01/16 10:56:59;;;;;;;12.63;8.10;;;;;;;;;;5112312;28;20415;-66
2021/01/16 10:59:29;;;;;;;14.73;8.10;;;;;;;;;;5111075;28;20407;-65
2021/01/16 11:01:56;;;;;;;12.83;8.33;;;;;;;;;;5111125;28;20020;-66
2021/01/16 11:04:23;;;;;;;11.83;7.17;;;;;;;;;;5112305;28;20423;-65
2021/01/16 11:06:50;;;;;;;11.60;7.17;;;;;;;;;;5112956;28;20023;-66
2021/01/16 11:09:35;;;;;;;11.57;7.73;;;;;;;;;;5113637;28;20030;-66
2021/01/16 11:12:01;;;;;;;11.93;5.87;;;;;;;;;;5113761;28;20016;-65
2021/01/16 11:14:34;;;;;;;11.40;6.40;;;;;;;;;;5112749;28;20080;-65
2021/01/16 11:17:00;;;;;;;;;;;;;;;;;;5112390;28;20016;-66
2021/01/16 11:19:31;;;;;;;6.23;4.33;;;;;;;;;;5111943;28;19946;-65
2021/01/16 11:21:57;;;;;;;4.90;3.30;;;;;;;;;;5113594;28;20015;-65
2021/01/16 11:24:45;;;;;;;5.93;3.83;;;;;;;;;;5109267;28;20451;-65
2021/01/16 11:27:12;;;;;;;8.13;3.93;;;;;;;;;;5110594;28;20092;-66
2021/01/16 11:29:42;;;;;;;6.47;2.80;;;;;;;;;;5111736;28;20055;-65
2021/01/16 11:32:14;;;;;;;6.20;3.37;;;;;;;;;;5113268;28;20046;-65
2021/01/16 11:35:01;;;;;;;6.07;3.50;;;;;;;;;;5113523;28;20537;-65
2021/01/16 11:37:46;;;;;;;5.93;3.47;;;;;;;;;;5105968;28;20268;-65
2021/01/16 11:40:21;;;;;;;7.77;3.87;;;;;;;;;;5113602;28;20040;-65
2021/01/16 11:42:54;;;;;;;5.60;3.33;;;;;;;;;;5112231;28;20073;-65
2021/01/16 11:45:21;;;;;;;6.00;3.40;;;;;;;;;;5113307;28;20032;-65
2021/01/16 11:47:51;;;;;;;5.20;3.27;;;;;;;;;;5113422;28;20027;-65
2021/01/16 11:50:19;;;;;;;5.07;3.60;;;;;;;;;;5113325;28;20026;-65
2021/01/16 11:52:45;;;;;;;9.10;4.00;;;;;;;;;;5113095;28;20080;-65
2021/01/16 11:55:12;;;;;;;5.70;3.90;;;;;;;;;;5113452;28;20388;-65
2021/01/16 11:57:38;;;;;;;5.43;3.70;;;;;;;;;;5112875;28;20028;-65
2021/01/16 12:00:05;;;;;;;5.37;3.40;;;;;;;;;;5113047;28;20392;-65
2021/01/16 12:02:32;;;;;;;14.13;3.90;;;;;;;;;;5112894;28;20410;-66
2021/01/16 12:04:58;;;;;;;7.37;4.20;;;;;;;;;;5113337;28;20024;-66
2021/01/16 12:07:25;;;;;;;5.70;3.67;;;;;;;;;;5112839;28;20020;-66
2021/01/16 12:09:53;;;;;;;12.83;7.00;;;;;;;;;;5112872;28;20080;-66
2021/01/16 12:12:19;;;;;;;5.27;3.47;;;;;;;;;;5113012;28;20429;-65
2021/01/16 12:14:45;;;;;;;8.77;5.70;;;;;;;;;;5113077;28;20472;-65
2021/01/16 12:17:12;;;;;;;7.70;3.77;;;;;;;;;;5112453;28;20046;-65
2021/01/16 12:19:39;;;;;;;6.50;3.20;;;;;;;;;;5112994;28;20138;-65
2021/01/16 12:22:07;;;;;;;5.40;3.30;;;;;;;;;;5113415;28;20094;-65
2021/01/16 12:24:33;;;;;;;7.57;3.17;;;;;;;;;;5113013;28;20060;-66
2021/01/16 12:27:00;;;;;;;5.90;3.60;;;;;;;;;;5113043;28;20020;-66
2021/01/16 12:29:47;;;;;;;4.07;2.97;;;;;;;;;;5112867;28;20047;-66
2021/01/16 12:32:16;;;;;;;5.80;3.43;;;;;;;;;;5114591;28;20102;-66
2021/01/16 12:34:52;;;;;;;5.57;3.27;;;;;;;;;;5116811;28;20057;-66
2021/01/16 12:37:31;;;;;;;6.00;4.13;;;;;;;;;;5116584;28;20016;-66
2021/01/16 12:40:01;;;;;;;8.13;3.20;;;;;;;;;;5116474;28;20032;-66
2021/01/16 12:42:30;;;;;;;4.93;3.10;;;;;;;;;;5116939;27;20024;-66
2021/01/16 12:45:08;;;;;;;4.63;3.33;;;;;;;;;;5116855;28;20031;-66
2021/01/16 12:47:35;;;;;;;5.50;3.50;;;;;;;;;;5116664;28;20039;-66
2021/01/16 12:50:02;;;;;;;7.77;3.73;;;;;;;;;;5116340;28;20070;-66
2021/01/16 12:52:29;;;;;;;5.43;3.33;;;;;;;;;;5116185;28;20033;-66
2021/01/16 12:54:58;;;;;;;8.00;3.10;;;;;;;;;;5116212;28;20030;-66
2021/01/16 12:57:28;;;;;;;5.40;3.27;;;;;;;;;;5115941;28;20040;-66
2021/01/16 12:59:54;;;;;;;7.03;4.37;;;;;;;;;;5115606;27;20035;-66
2021/01/16 13:02:21;;;;;;;8.40;4.03;;;;;;;;;;5114187;28;20030;-66
2021/01/16 13:04:47;;;;;;;7.40;4.47;;;;;;;;;;5113983;28;20023;-66
2021/01/16 13:07:13;;;;;;;6.33;3.87;;;;;;;;;;5115756;28;20023;-66
2021/01/16 13:09:39;;;;;;;6.70;4.13;;;;;;;;;;5116030;28;20027;-66
2021/01/16 13:12:06;;;;;;;6.80;3.70;;;;;;;;;;5116161;28;20019;-66
2021/01/16 13:15:04;;;;;;;7.87;3.93;;;;;;;;;;5116221;28;20027;-66
2021/01/16 13:17:32;;;;;;;5.57;3.50;;;;;;;;;;5103369;28;20028;-66
2021/01/16 13:19:59;;;;;;;5.60;3.80;;;;;;;;;;5116012;28;20047;-66
2021/01/16 13:22:26;;;;;;;5.70;3.67;;;;;;;;;;5116003;28;20016;-66
2021/01/16 13:25:08;;;;;;;5.37;3.43;;;;;;;;;;5115466;28;20034;-66
2021/01/16 13:27:35;;;;;;;4.70;3.20;;;;;;;;;;5115895;28;20036;-66
2021/01/16 13:30:15;;;;;;;8.07;4.30;;;;;;;;;;5115325;28;20050;-65
2021/01/16 13:32:42;;;;;;;5.17;3.50;;;;;;;;;;5115547;28;20031;-66
2021/01/16 13:35:09;;;;;;;5.90;4.00;;;;;;;;;;5115749;28;20023;-66
2021/01/16 13:37:36;;;;;;;6.07;3.50;;;;;;;;;;5115468;28;20480;-66
2021/01/16 13:40:22;;;;;;;6.10;3.40;;;;;;;;;;5115456;28;20113;-66
2021/01/16 13:42:49;;;;;;;5.17;3.50;;;;;;;;;;5115407;28;20023;-66
2021/01/16 13:45:16;;;;;;;5.87;3.30;;;;;;;;;;5115216;28;20426;-66
2021/01/16 13:47:42;;;;;;;7.03;3.63;;;;;;;;;;5115492;28;20028;-66
2021/01/16 13:50:11;;;;;;;6.40;3.80;;;;;;;;;;5115413;28;20081;-66
2021/01/16 13:52:56;;;;;;;4.90;3.30;;;;;;;;;;5115116;28;20476;-66
2021/01/16 13:55:25;;;;;;;5.43;3.43;;;;;;;;;;5115194;28;20044;-66
2021/01/16 13:58:01;;;;;;;5.30;3.87;;;;;;;;;;5115088;28;20032;-66
2021/01/16 14:00:30;;;;;;;6.80;3.53;;;;;;;;;;5114903;28;20032;-66